Oslo Airport, Norway

9:54 AM CEST on May 05, 2015 (GMT +0200)
Gardermoen | | Change Station
CLOSE
Current Station
Airport
Location: Oslo Airport,
Elevation: 679 ft
Nearby Weather Stations

Elev 679 ft 60.21 °N, 11.08 °E | Updated 34 minutes ago

Mostly Cloudy
Mostly Cloudy
41 °F
Feels Like 38 °F
N
5
Wind Variable Wind from North

Today
High -- | Low -- °F
--% Chance of Precip.
Yesterday
High -- | Low -- °F
Precip. -- in
5:02 AM 9:23 PM
Full, 99% visible
Pressure 29.77 in
Visibility 6.2 miles
Clouds Few 400 ft
Scattered Clouds 700 ft
Mostly Cloudy 1700 ft
Windchill 38 °F
Dew Point 39 °F
Humidity 93%
Rainfall 0.00 in
Snow Depth Not available.
UV 2 out of 12
Pollen Not available.
Air Quality Not available.
Flu Activity Not available.
METAR ENGM 050720Z 36004KT 9999 FEW004 SCT007 BKN017 05/04 Q1008 NOSIG

More Conditions Fewer Conditions

Pressure 29.77 in
Visibility 6.2 miles
Clouds Few 400 ft
Scattered Clouds 700 ft
Mostly Cloudy 1700 ft
Windchill 38 °F
Dew Point 39 °F
Humidity 93%
Rainfall 0.00 in
Snow Depth Not available.
UV 2 out of 12
Pollen Not available.
Air Quality Not available.
Flu Activity Not available.
METAR ENGM 050720Z 36004KT 9999 FEW004 SCT007 BKN017 05/04 Q1008 NOSIG

More Conditions Fewer Conditions

10-Day Weather Forecast

Almanac

Astronomy

May. 05, 2015 Rise Set
Actual Time
Civil Twilight
Nautical Twilight
Astronomical Twilight
Moon
Length of Visible Light
Length of Day
Tomorrow will be .
, % of the Moon is Illuminated

Today's Extremes

Country Highs Country Lows

Community

WunderPhotos

Upload Photos

1,818,814 photos uploaded!

WunderBlogs® & News

Nearby

Air Quality

  Air Quality AQ Index Pollutant
Not available.

Snow Depth

Station Depth Elevation

Earthquake Activity

City Distance Mag. Time & Date
Minimum magnitude displayed is 2.5.

Coastal Water Temperatures

Place Temperature

Stations

Nearby Weather Stations

Station Location Temp. Windchill Dew Point Humidity Wind Precip. Elev Updated Type